Time;durP1;ratioP1;P1;durP2;ratioP2;P2;SDS_P1;SDS_P2;PMS_P1;PMS_P2;Temp;Humidity;BMP_temperature;BMP_pressure;BME280_temperature;BME280_humidity;BME280_pressure;Samples;Min_cycle;Max_cycle;Signal;HPM_P1;HPM_P2
2023/04/15 00:00:34;;;;;;;3.20;1.35;;;9.10;91.20;;;;;;5028733;28;20036;-75
2023/04/15 00:03:01;;;;;;;3.25;1.02;;;9.10;91.30;;;;;;5026687;28;20522;-75
2023/04/15 00:05:29;;;;;;;3.55;1.52;;;9.00;91.40;;;;;;5018184;28;20028;-74
2023/04/15 00:07:56;;;;;;;6.78;1.98;;;9.00;91.70;;;;;;5046241;28;20024;-75
2023/04/15 00:10:23;;;;;;;5.70;2.65;;;9.00;92.00;;;;;;5028603;28;20028;-75
2023/04/15 00:12:49;;;;;;;3.17;1.42;;;9.00;92.20;;;;;;5049464;28;20020;-75
2023/04/15 00:15:16;;;;;;;5.22;1.80;;;8.90;92.30;;;;;;5022501;28;20041;-76
2023/04/15 00:17:42;;;;;;;4.60;1.55;;;8.90;92.60;;;;;;5025960;28;20020;-75
2023/04/15 00:20:09;;;;;;;5.07;2.17;;;8.90;92.60;;;;;;5021054;28;20056;-75
2023/04/15 00:22:35;;;;;;;6.40;2.72;;;8.90;92.90;;;;;;5029463;28;20609;-75
2023/04/15 00:25:02;;;;;;;6.88;2.08;;;8.90;93.40;;;;;;5023377;28;20043;-75
2023/04/15 00:27:29;;;;;;;7.20;2.90;;;8.90;93.60;;;;;;5011684;28;20024;-75
2023/04/15 00:29:57;;;;;;;4.65;2.30;;;8.90;93.70;;;;;;5031367;28;20139;-74
2023/04/15 00:32:23;;;;;;;5.90;3.00;;;8.80;93.90;;;;;;5028939;28;20043;-75
2023/04/15 00:34:49;;;;;;;6.57;2.80;;;8.80;94.20;;;;;;5042259;28;20422;-74
2023/04/15 00:37:16;;;;;;;4.43;2.60;;;8.80;94.40;;;;;;5008531;28;20029;-76
2023/04/15 00:39:42;;;;;;;6.13;2.83;;;8.80;94.70;;;;;;5021701;28;20032;-75
2023/04/15 00:42:09;;;;;;;4.47;2.17;;;8.80;95.00;;;;;;5030742;28;20043;-75
2023/04/15 00:44:35;;;;;;;5.20;2.60;;;8.70;95.20;;;;;;5022304;28;20052;-74
2023/04/15 00:47:04;;;;;;;6.70;2.67;;;8.70;95.40;;;;;;5048204;28;20047;-75
2023/04/15 00:49:31;;;;;;;6.28;3.58;;;8.60;95.80;;;;;;5028387;28;20062;-75
2023/04/15 00:51:57;;;;;;;5.90;2.78;;;8.60;96.00;;;;;;5029843;28;20068;-75
2023/04/15 00:54:23;;;;;;;8.18;2.97;;;8.60;96.40;;;;;;5024065;28;20046;-74
2023/04/15 00:56:50;;;;;;;5.28;2.38;;;8.50;96.80;;;;;;5012162;28;20024;-75
2023/04/15 00:59:17;;;;;;;3.58;2.03;;;8.60;97.20;;;;;;5027025;28;20033;-74
2023/04/15 01:01:44;;;;;;;4.25;2.38;;;8.50;97.40;;;;;;5047924;28;20037;-75
2023/04/15 01:04:11;;;;;;;7.43;3.67;;;8.50;97.60;;;;;;5009142;28;20037;-75
2023/04/15 01:06:37;;;;;;;6.88;2.92;;;8.50;98.30;;;;;;5008722;28;20032;-75
2023/04/15 01:09:03;;;;;;;6.05;3.10;;;8.50;98.70;;;;;;5010333;28;20029;-75
2023/04/15 01:11:34;;;;;;;7.22;3.10;;;8.50;99.30;;;;;;5031571;28;20486;-76
2023/04/15 01:14:01;;;;;;;6.38;2.70;;;8.50;99.60;;;;;;5046432;28;20025;-74
2023/04/15 01:16:28;;;;;;;5.57;2.90;;;8.60;99.90;;;;;;5042993;28;20553;-76
2023/04/15 01:18:55;;;;;;;5.28;2.78;;;8.60;99.90;;;;;;5028864;28;20043;-75
2023/04/15 01:21:22;;;;;;;5.65;2.33;;;8.60;99.90;;;;;;5000225;28;21068;-75
2023/04/15 01:23:52;;;;;;;7.00;3.20;;;8.50;99.90;;;;;;5023898;28;20043;-74
2023/04/15 01:26:19;;;;;;;3.63;2.40;;;8.50;99.90;;;;;;5043377;28;20025;-75
2023/04/15 01:28:45;;;;;;;4.90;2.70;;;8.60;99.90;;;;;;4997247;28;20041;-76
2023/04/15 01:31:13;;;;;;;6.13;3.30;;;8.50;99.90;;;;;;5013768;28;20035;-75
2023/04/15 01:33:41;;;;;;;5.93;3.15;;;8.50;99.90;;;;;;5023737;28;20395;-74
2023/04/15 01:36:26;;;;;;;4.22;2.67;;;8.60;99.90;;;;;;5041842;28;20024;-74
2023/04/15 01:38:53;;;;;;;7.72;3.53;;;8.50;99.90;;;;;;5028046;28;20048;-73
2023/04/15 01:41:27;;;;;;;5.28;3.65;;;8.50;99.90;;;;;;5028120;28;20040;-74
2023/04/15 01:43:55;;;;;;;6.05;3.22;;;8.50;99.90;;;;;;5044718;28;20357;-73
2023/04/15 01:46:23;;;;;;;6.07;4.05;;;8.50;99.90;;;;;;5041131;28;20048;-74
2023/04/15 01:48:50;;;;;;;4.60;3.38;;;8.50;99.90;;;;;;5026051;28;20044;-74
2023/04/15 01:51:18;;;;;;;6.00;3.50;;;8.50;99.90;;;;;;5048390;28;20040;-74
2023/04/15 01:53:46;;;;;;;6.80;3.25;;;8.50;99.90;;;;;;5009748;28;20036;-75
2023/04/15 01:56:13;;;;;;;6.57;3.13;;;8.50;99.90;;;;;;5010467;28;20056;-74
2023/04/15 01:58:44;;;;;;;8.88;3.33;;;8.50;99.90;;;;;;5024904;28;20322;-74
2023/04/15 02:01:12;;;;;;;6.60;3.03;;;8.50;99.90;;;;;;5025518;28;20455;-74
2023/04/15 02:03:39;;;;;;;5.55;3.47;;;8.40;99.90;;;;;;5043401;28;20052;-75
2023/04/15 02:06:07;;;;;;;4.97;3.20;;;8.40;99.90;;;;;;5006953;28;20305;-74
2023/04/15 02:08:34;;;;;;;5.50;3.13;;;8.40;99.90;;;;;;5011452;28;20045;-74
2023/04/15 02:11:02;;;;;;;6.13;2.80;;;8.40;99.90;;;;;;5024786;28;20045;-73
2023/04/15 02:13:29;;;;;;;7.38;4.63;;;8.40;99.90;;;;;;5024388;28;20052;-74
2023/04/15 02:15:58;;;;;;;5.55;2.83;;;8.40;99.90;;;;;;5019052;28;20048;-76
2023/04/15 02:18:26;;;;;;;4.55;2.80;;;8.40;99.90;;;;;;5026032;28;20049;-74
2023/04/15 02:20:55;;;;;;;5.03;2.60;;;8.40;99.90;;;;;;5024088;28;20051;-75
2023/04/15 02:23:23;;;;;;;6.15;3.55;;;8.30;99.90;;;;;;5021781;28;20056;-75
2023/04/15 02:25:51;;;;;;;5.60;2.72;;;8.30;99.90;;;;;;5022695;28;20044;-73
2023/04/15 02:28:18;;;;;;;4.97;2.80;;;8.30;99.90;;;;;;5012211;28;20539;-75
2023/04/15 02:30:51;;;;;;;2.90;2.28;;;8.30;99.90;;;;;;5026420;28;20048;-74
2023/04/15 02:33:20;;;;;;;9.13;4.30;;;8.30;99.90;;;;;;5023467;28;20277;-73
2023/04/15 02:35:48;;;;;;;4.88;2.60;;;8.20;99.90;;;;;;5021136;28;20043;-74
2023/04/15 02:38:16;;;;;;;4.45;3.10;;;8.20;99.90;;;;;;5045198;28;20040;-74
2023/04/15 02:40:45;;;;;;;4.93;2.83;;;8.20;99.90;;;;;;5025221;28;20040;-74
2023/04/15 02:43:13;;;;;;;3.83;2.88;;;8.10;99.90;;;;;;5008986;28;20060;-74
2023/04/15 02:45:42;;;;;;;6.30;3.05;;;8.10;99.90;;;;;;5020703;28;20044;-74
2023/04/15 02:48:09;;;;;;;5.57;3.00;;;8.00;99.90;;;;;;5027852;28;20052;-75
2023/04/15 02:50:40;;;;;;;5.18;2.78;;;7.90;99.90;;;;;;5029868;28;20391;-74
2023/04/15 02:53:09;;;;;;;10.20;3.50;;;7.90;99.90;;;;;;5009699;28;20028;-74
2023/04/15 02:55:37;;;;;;;7.05;3.92;;;7.80;99.90;;;;;;5040814;28;20056;-74
2023/04/15 02:58:04;;;;;;;6.70;3.85;;;7.80;99.90;;;;;;5024806;28;20033;-74
2023/04/15 03:00:32;;;;;;;5.43;3.03;;;7.80;99.90;;;;;;5022606;28;20431;-75
2023/04/15 03:03:04;;;;;;;6.35;3.45;;;7.70;99.90;;;;;;5010838;28;20451;-74
2023/04/15 03:05:32;;;;;;;8.35;4.72;;;7.70;99.90;;;;;;5006622;28;20526;-75
2023/04/15 03:08:02;;;;;;;5.50;3.83;;;7.60;99.90;;;;;;5029043;28;20048;-74
2023/04/15 03:10:29;;;;;;;6.38;3.20;;;7.60;99.90;;;;;;5010665;28;20048;-75
2023/04/15 03:12:57;;;;;;;4.20;2.60;;;7.50;99.90;;;;;;5004729;28;20051;-74
2023/04/15 03:15:25;;;;;;;7.25;3.97;;;7.50;99.90;;;;;;5020409;28;20459;-75
2023/04/15 03:17:55;;;;;;;6.88;3.15;;;7.50;99.90;;;;;;5026002;28;20407;-74
2023/04/15 03:20:23;;;;;;;6.97;3.80;;;7.50;99.90;;;;;;5026123;28;20476;-73
2023/04/15 03:22:51;;;;;;;4.75;3.30;;;7.40;99.90;;;;;;5026320;28;20036;-74
2023/04/15 03:25:20;;;;;;;6.28;3.67;;;7.40;99.90;;;;;;5018468;28;20043;-74
2023/04/15 03:27:48;;;;;;;6.20;2.72;;;7.40;99.90;;;;;;5026701;28;20056;-74
2023/04/15 03:30:16;;;;;;;5.18;3.10;;;7.40;99.90;;;;;;5032144;28;20534;-74
2023/04/15 03:32:43;;;;;;;8.52;4.78;;;7.30;99.90;;;;;;5029088;28;20040;-74
2023/04/15 03:35:11;;;;;;;5.53;3.30;;;7.30;99.90;;;;;;5004982;28;20360;-75
2023/04/15 03:37:38;;;;;;;4.55;3.40;;;7.20;99.90;;;;;;5014516;28;20053;-74
2023/04/15 03:40:07;;;;;;;5.70;2.53;;;7.10;99.90;;;;;;5029406;28;20055;-74
2023/04/15 03:42:35;;;;;;;6.65;3.75;;;7.10;99.90;;;;;;5031303;28;20751;-74
2023/04/15 03:45:03;;;;;;;6.22;4.00;;;7.10;99.90;;;;;;5020855;28;20052;-74
2023/04/15 03:47:30;;;;;;;5.07;3.00;;;7.10;99.90;;;;;;5048358;28;20543;-74
2023/04/15 03:49:58;;;;;;;6.18;4.68;;;7.00;99.90;;;;;;5029332;28;20048;-74
2023/04/15 03:52:25;;;;;;;5.95;3.72;;;7.00;99.90;;;;;;5048695;28;20040;-73
2023/04/15 03:54:53;;;;;;;7.40;3.63;;;6.90;99.90;;;;;;5040652;28;20081;-74
2023/04/15 03:57:20;;;;;;;4.57;3.20;;;6.90;99.90;;;;;;5049172;28;20048;-74
2023/04/15 03:59:48;;;;;;;8.85;4.40;;;6.80;99.90;;;;;;5007519;28;20520;-74
2023/04/15 04:02:16;;;;;;;5.53;3.95;;;6.80;99.90;;;;;;5028501;28;20048;-74
2023/04/15 04:04:43;;;;;;;5.57;4.10;;;6.80;99.90;;;;;;5021991;28;20044;-73
2023/04/15 04:07:17;;;;;;;5.47;3.90;;;6.80;99.90;;;;;;5048542;28;20067;-74
2023/04/15 04:09:45;;;;;;;5.20;3.75;;;6.80;99.90;;;;;;5027212;28;20927;-75
2023/04/15 04:12:12;;;;;;;9.40;4.47;;;6.80;99.90;;;;;;5030090;28;20076;-74
2023/04/15 04:14:40;;;;;;;7.00;4.53;;;6.70;99.90;;;;;;5040340;28;20403;-74
2023/04/15 04:17:08;;;;;;;6.93;5.07;;;6.70;99.90;;;;;;5047969;28;20036;-73
2023/04/15 04:19:35;;;;;;;7.55;5.18;;;6.70;99.90;;;;;;5047087;28;20407;-74
2023/04/15 04:22:03;;;;;;;7.88;5.57;;;6.70;99.90;;;;;;5028019;28;20052;-74
2023/04/15 04:24:31;;;;;;;6.75;4.95;;;6.70;99.90;;;;;;5030296;28;20056;-74
2023/04/15 04:26:58;;;;;;;7.13;4.97;;;6.70;99.90;;;;;;5045786;28;20313;-75
2023/04/15 04:29:26;;;;;;;9.88;5.25;;;6.70;99.90;;;;;;5028444;28;20404;-73
2023/04/15 04:31:53;;;;;;;11.30;8.05;;;6.60;99.90;;;;;;5048494;28;20391;-74
2023/04/15 04:34:21;;;;;;;7.20;5.80;;;6.60;99.90;;;;;;5023278;28;20051;-73
2023/04/15 04:36:48;;;;;;;8.10;6.20;;;6.60;99.90;;;;;;5026289;28;20495;-74
2023/04/15 04:39:16;;;;;;;8.55;6.28;;;6.60;99.90;;;;;;5028428;28;20048;-74
2023/04/15 04:41:44;;;;;;;8.13;5.72;;;6.60;99.90;;;;;;5046512;28;20374;-75
2023/04/15 04:44:11;;;;;;;8.52;5.57;;;6.50;99.90;;;;;;5046837;28;20051;-74
2023/04/15 04:46:39;;;;;;;7.88;5.60;;;6.50;99.90;;;;;;5045430;28;20040;-73
2023/04/15 04:49:06;;;;;;;8.48;5.38;;;6.50;99.90;;;;;;5047354;28;20048;-75
2023/04/15 04:51:34;;;;;;;9.93;6.68;;;6.40;99.90;;;;;;5047372;28;20060;-75
2023/04/15 04:54:03;;;;;;;10.32;6.78;;;6.40;99.90;;;;;;5045788;28;21137;-74
2023/04/15 04:56:30;;;;;;;9.38;7.18;;;6.40;99.90;;;;;;5045245;28;20040;-75
2023/04/15 04:58:58;;;;;;;9.18;6.78;;;6.40;99.90;;;;;;5011028;28;20439;-74
2023/04/15 05:01:26;;;;;;;13.75;8.63;;;6.40;99.90;;;;;;5046463;28;20048;-75
2023/04/15 05:03:53;;;;;;;9.55;7.70;;;6.40;99.90;;;;;;5027723;28;20047;-74
2023/04/15 05:06:21;;;;;;;11.38;8.00;;;6.40;99.90;;;;;;5024859;28;20059;-74
2023/04/15 05:08:48;;;;;;;10.57;8.05;;;6.40;99.90;;;;;;5047568;28;20040;-74
2023/04/15 05:11:16;;;;;;;9.27;7.68;;;6.40;99.90;;;;;;5045591;28;20060;-73
2023/04/15 05:13:44;;;;;;;10.52;7.03;;;6.40;99.90;;;;;;5044317;28;20424;-75
2023/04/15 05:16:11;;;;;;;8.00;6.28;;;6.30;99.90;;;;;;5025706;28;20053;-74
2023/04/15 05:18:39;;;;;;;10.35;7.35;;;6.30;99.90;;;;;;5029988;28;20049;-73
2023/04/15 05:21:06;;;;;;;12.90;8.77;;;6.40;99.90;;;;;;5029849;28;20290;-74
2023/04/15 05:23:34;;;;;;;10.93;7.90;;;6.30;99.90;;;;;;5045277;28;20414;-74
2023/04/15 05:26:02;;;;;;;12.60;8.38;;;6.40;99.90;;;;;;5043341;28;20051;-75
2023/04/15 05:28:30;;;;;;;10.23;7.60;;;6.50;99.90;;;;;;5045308;28;20056;-74
2023/04/15 05:30:57;;;;;;;14.05;10.25;;;6.60;99.90;;;;;;5027836;28;20028;-75
2023/04/15 05:33:26;;;;;;;14.27;10.50;;;6.70;99.90;;;;;;5043898;28;20040;-73
2023/04/15 05:35:53;;;;;;;11.13;8.02;;;6.80;99.90;;;;;;5024728;28;20040;-74
2023/04/15 05:38:21;;;;;;;11.38;8.02;;;6.80;99.90;;;;;;5043391;28;20421;-73
2023/04/15 05:40:48;;;;;;;11.82;9.10;;;6.80;99.90;;;;;;5045625;28;20076;-75
2023/04/15 05:43:16;;;;;;;11.05;8.38;;;6.90;99.90;;;;;;5042887;28;20055;-75
2023/04/15 05:45:43;;;;;;;10.98;8.13;;;6.90;99.90;;;;;;5025358;28;20048;-75
2023/04/15 05:48:11;;;;;;;10.68;7.88;;;7.00;99.90;;;;;;5023107;28;20037;-75
2023/04/15 05:50:42;;;;;;;11.82;7.72;;;7.00;99.90;;;;;;5027726;28;20044;-73
2023/04/15 05:53:10;;;;;;;10.45;7.88;;;7.10;99.90;;;;;;5043677;28;20063;-74
2023/04/15 05:55:38;;;;;;;8.40;6.60;;;7.20;99.90;;;;;;5021209;28;20048;-75
2023/04/15 05:58:05;;;;;;;14.15;8.57;;;7.30;99.90;;;;;;5045295;28;20075;-75
2023/04/15 06:00:33;;;;;;;8.82;6.65;;;7.50;99.90;;;;;;5024417;28;20051;-74
2023/04/15 06:03:01;;;;;;;10.88;7.57;;;7.70;99.90;;;;;;5025043;28;20048;-74
2023/04/15 06:05:28;;;;;;;12.05;9.10;;;7.90;99.90;;;;;;5019346;28;20676;-74
2023/04/15 06:07:56;;;;;;;12.32;10.05;;;8.10;99.90;;;;;;5024922;28;20490;-75
2023/04/15 06:10:24;;;;;;;10.10;8.38;;;8.30;99.90;;;;;;5027135;28;20059;-74
2023/04/15 06:12:52;;;;;;;14.73;9.77;;;8.50;99.90;;;;;;5044585;28;20055;-74
2023/04/15 06:15:20;;;;;;;9.90;7.90;;;8.60;99.90;;;;;;5038968;28;20422;-75
2023/04/15 06:17:47;;;;;;;11.90;8.45;;;8.80;99.90;;;;;;5024454;28;20602;-75
2023/04/15 06:20:15;;;;;;;12.60;8.23;;;8.80;99.90;;;;;;5023243;28;20048;-74
2023/04/15 06:22:42;;;;;;;8.00;6.50;;;8.90;99.90;;;;;;5044416;28;20040;-75
2023/04/15 06:25:10;;;;;;;11.23;8.93;;;8.90;99.90;;;;;;5003477;28;20044;-75
2023/04/15 06:27:38;;;;;;;9.23;7.45;;;8.90;99.90;;;;;;5024675;28;20626;-74
2023/04/15 06:30:06;;;;;;;7.95;6.72;;;8.90;99.90;;;;;;5022978;28;20411;-74
2023/04/15 06:32:34;;;;;;;10.88;7.97;;;8.90;99.90;;;;;;5024229;28;20136;-74
2023/04/15 06:35:01;;;;;;;8.48;6.13;;;8.90;99.90;;;;;;5039127;28;20712;-74
2023/04/15 06:37:29;;;;;;;8.13;5.72;;;8.80;99.90;;;;;;5046573;28;20415;-75
2023/04/15 06:39:57;;;;;;;10.02;7.10;;;8.80;99.90;;;;;;5020976;28;20038;-74
2023/04/15 06:42:24;;;;;;;8.88;7.10;;;8.80;99.90;;;;;;5025837;28;20033;-75
2023/04/15 06:44:52;;;;;;;10.02;7.32;;;8.70;99.90;;;;;;5023149;28;20053;-74
2023/04/15 06:47:19;;;;;;;10.13;7.45;;;8.70;99.90;;;;;;5043431;28;20048;-75
2023/04/15 06:49:47;;;;;;;7.82;6.57;;;8.60;99.90;;;;;;5020771;28;20455;-75
2023/04/15 06:52:15;;;;;;;10.68;7.90;;;8.60;99.90;;;;;;5026382;28;20047;-75
2023/04/15 06:54:43;;;;;;;12.07;8.88;;;8.50;99.90;;;;;;5020068;28;20513;-74
2023/04/15 06:57:10;;;;;;;12.35;9.55;;;8.50;99.90;;;;;;5044678;28;20056;-74
2023/04/15 06:59:38;;;;;;;11.20;8.18;;;8.40;99.90;;;;;;5012523;28;20075;-74
2023/04/15 07:02:11;;;;;;;11.00;8.48;;;8.40;99.90;;;;;;5047148;28;20254;-74
2023/04/15 07:04:39;;;;;;;10.30;8.48;;;8.50;99.90;;;;;;5043428;28;20040;-74
2023/04/15 07:07:06;;;;;;;11.57;9.23;;;8.50;99.90;;;;;;5047728;28;20040;-75
2023/04/15 07:09:34;;;;;;;10.90;7.72;;;8.50;99.90;;;;;;5029770;28;20057;-73
2023/04/15 07:12:02;;;;;;;10.60;8.90;;;8.50;99.90;;;;;;5049604;28;20052;-74
2023/04/15 07:14:29;;;;;;;13.32;9.82;;;8.60;99.90;;;;;;5042695;28;20047;-73
2023/04/15 07:16:57;;;;;;;12.23;8.82;;;8.60;99.90;;;;;;5027063;28;20461;-75
2023/04/15 07:19:24;;;;;;;11.07;8.15;;;8.60;99.90;;;;;;5028307;28;20048;-74
2023/04/15 07:21:52;;;;;;;9.15;7.20;;;8.60;99.90;;;;;;5025933;28;20451;-73
2023/04/15 07:24:20;;;;;;;10.27;7.90;;;8.60;99.90;;;;;;5021572;28;20071;-74
2023/04/15 07:26:47;;;;;;;8.30;6.55;;;8.70;99.90;;;;;;5036929;28;20045;-74
2023/04/15 07:29:15;;;;;;;13.02;9.88;;;8.70;99.90;;;;;;5017186;28;20049;-74
2023/04/15 07:31:42;;;;;;;9.45;8.27;;;8.70;99.90;;;;;;5025886;28;20075;-73
2023/04/15 07:34:10;;;;;;;9.98;7.18;;;8.80;99.90;;;;;;5040948;28;20044;-74
2023/04/15 07:36:39;;;;;;;10.25;7.18;;;8.90;99.90;;;;;;5040027;28;20404;-73
2023/04/15 07:39:06;;;;;;;9.60;7.05;;;8.90;99.90;;;;;;5026556;28;20045;-74
2023/04/15 07:41:34;;;;;;;12.50;7.90;;;9.00;99.90;;;;;;5025322;28;20252;-74
2023/04/15 07:44:02;;;;;;;9.55;7.65;;;9.20;99.90;;;;;;5042953;28;20045;-74
2023/04/15 07:46:29;;;;;;;12.40;9.07;;;9.30;99.90;;;;;;5015238;28;20056;-74
2023/04/15 07:48:57;;;;;;;11.55;8.70;;;9.40;99.90;;;;;;5026866;28;20060;-74
2023/04/15 07:51:24;;;;;;;11.52;8.38;;;9.50;99.90;;;;;;5023028;28;20370;-75
2023/04/15 07:53:52;;;;;;;9.68;6.82;;;9.60;99.90;;;;;;5025837;28;20487;-74
2023/04/15 07:56:20;;;;;;;10.82;7.57;;;9.70;99.90;;;;;;5018193;28;20040;-73
2023/04/15 07:58:48;;;;;;;11.38;7.80;;;9.90;99.90;;;;;;5020738;28;20044;-74
2023/04/15 08:01:16;;;;;;;9.68;7.45;;;10.10;99.90;;;;;;5026186;28;20052;-74
2023/04/15 08:03:43;;;;;;;8.38;6.50;;;10.20;99.90;;;;;;5036996;28;20455;-74
2023/04/15 08:06:11;;;;;;;11.35;6.28;;;10.40;99.90;;;;;;5039139;28;20036;-73
2023/04/15 08:08:38;;;;;;;8.23;6.47;;;10.50;99.90;;;;;;5021277;28;20032;-74
2023/04/15 08:11:06;;;;;;;6.43;4.97;;;10.60;99.90;;;;;;5044850;28;20044;-74
2023/04/15 08:13:33;;;;;;;9.75;6.07;;;10.80;99.90;;;;;;5040126;28;20059;-73
2023/04/15 08:16:21;;;;;;;10.10;5.68;;;10.90;99.90;;;;;;5013880;28;20048;-75
2023/04/15 08:18:51;;;;;;;9.07;5.50;;;11.10;99.90;;;;;;5044316;28;20068;-74
2023/04/15 08:21:19;;;;;;;6.85;4.85;;;11.10;99.90;;;;;;5044189;28;20507;-74
2023/04/15 08:23:51;;;;;;;5.20;4.45;;;11.10;99.90;;;;;;5024078;28;20071;-75
2023/04/15 08:26:20;;;;;;;6.05;4.68;;;11.10;99.90;;;;;;5035779;28;20055;-76
2023/04/15 08:28:48;;;;;;;5.22;3.67;;;11.20;99.90;;;;;;5028119;28;20055;-73
2023/04/15 08:31:17;;;;;;;5.32;2.83;;;11.20;99.90;;;;;;5046925;28;20500;-75
2023/04/15 08:33:45;;;;;;;4.32;2.38;;;11.30;99.90;;;;;;5044874;28;20036;-74
2023/04/15 08:36:13;;;;;;;6.60;3.55;;;11.40;99.90;;;;;;5025492;28;20360;-75
2023/04/15 08:38:41;;;;;;;4.93;2.97;;;11.50;99.90;;;;;;5047796;28;20442;-75
2023/04/15 08:41:24;;;;;;;4.03;2.97;;;11.50;99.90;;;;;;5046943;28;20059;-74
2023/04/15 08:44:03;;;;;;;3.35;2.70;;;11.60;99.90;;;;;;5043587;28;20041;-75
2023/04/15 08:46:33;;;;;;;6.53;3.28;;;11.70;99.90;;;;;;5043916;28;20049;-75
2023/04/15 08:49:03;;;;;;;5.72;4.25;;;11.80;99.90;;;;;;5046636;28;20059;-75
2023/04/15 08:51:32;;;;;;;3.17;2.47;;;11.90;99.90;;;;;;5047216;28;20057;-76
2023/04/15 08:54:01;;;;;;;3.80;3.40;;;11.90;99.90;;;;;;5024711;28;20036;-75
2023/04/15 08:56:33;;;;;;;4.82;3.70;;;12.00;99.90;;;;;;5023331;28;20051;-75
2023/04/15 08:59:02;;;;;;;4.80;3.55;;;12.00;99.90;;;;;;5045380;28;20044;-74
2023/04/15 09:01:31;;;;;;;3.80;2.90;;;12.00;99.90;;;;;;5046685;28;20036;-74
2023/04/15 09:04:01;;;;;;;4.03;2.17;;;12.00;99.90;;;;;;5043904;28;20041;-75
2023/04/15 09:06:29;;;;;;;4.53;3.10;;;12.00;99.90;;;;;;5023806;28;20051;-75
2023/04/15 09:08:56;;;;;;;5.80;3.13;;;12.10;99.90;;;;;;5026431;28;20036;-76
2023/04/15 09:11:24;;;;;;;4.47;2.67;;;12.20;99.90;;;;;;5048377;28;20044;-74
2023/04/15 09:13:52;;;;;;;4.13;3.13;;;12.20;99.90;;;;;;5043940;28;20040;-74
2023/04/15 09:16:19;;;;;;;5.80;3.42;;;12.30;99.90;;;;;;5023678;28;20041;-74
2023/04/15 09:18:47;;;;;;;6.70;3.53;;;12.50;99.90;;;;;;5027513;28;20032;-73
2023/04/15 09:21:16;;;;;;;3.53;2.40;;;12.60;99.90;;;;;;5046737;28;20044;-76
2023/04/15 09:23:58;;;;;;;5.45;2.85;;;12.70;99.90;;;;;;5023830;28;20040;-75
2023/04/15 09:26:35;;;;;;;4.63;3.10;;;12.80;99.90;;;;;;5020134;28;20506;-76
2023/04/15 09:29:05;;;;;;;6.85;4.75;;;13.00;99.90;;;;;;5046312;28;20376;-76
2023/04/15 09:31:33;;;;;;;4.65;2.95;;;13.10;99.90;;;;;;5027940;28;20407;-76
2023/04/15 09:34:00;;;;;;;4.43;3.55;;;13.20;99.90;;;;;;5042736;28;20032;-74
2023/04/15 09:36:32;;;;;;;3.70;3.30;;;13.30;99.90;;;;;;5042015;28;20036;-74
2023/04/15 09:39:00;;;;;;;3.78;2.95;;;13.50;99.90;;;;;;5046455;28;20032;-74
2023/04/15 09:41:28;;;;;;;4.15;2.67;;;13.50;99.90;;;;;;5046368;28;20459;-75
2023/04/15 09:43:55;;;;;;;6.05;2.55;;;13.50;99.90;;;;;;5023310;28;20557;-75
2023/04/15 09:46:45;;;;;;;2.90;1.90;;;13.50;99.90;;;;;;5024118;28;20317;-75
2023/04/15 09:49:12;;;;;;;5.30;2.17;;;13.70;99.90;;;;;;5045272;28;20391;-75
2023/04/15 09:51:40;;;;;;;3.30;1.95;;;13.80;99.90;;;;;;5044844;28;20064;-75
2023/04/15 09:54:08;;;;;;;4.05;2.25;;;13.80;99.90;;;;;;5043179;28;20048;-74
2023/04/15 09:56:37;;;;;;;4.18;2.38;;;13.90;99.90;;;;;;5022529;28;20052;-75
2023/04/15 09:59:05;;;;;;;4.18;2.75;;;14.00;99.90;;;;;;5044530;28;20578;-74
2023/04/15 10:01:34;;;;;;;4.05;2.92;;;14.20;99.90;;;;;;5045380;28;20044;-74
2023/04/15 10:04:03;;;;;;;4.00;2.63;;;14.30;99.90;;;;;;5040695;28;20051;-75
2023/04/15 10:06:31;;;;;;;3.65;2.55;;;14.30;99.90;;;;;;5039896;28;20045;-74
2023/04/15 10:09:00;;;;;;;3.25;2.20;;;14.40;99.90;;;;;;5025226;28;20044;-75
2023/04/15 10:11:28;;;;;;;3.88;2.22;;;14.50;99.90;;;;;;5045708;28;20055;-75
2023/04/15 10:13:57;;;;;;;2.40;1.80;;;14.40;99.90;;;;;;5041109;28;20227;-75
2023/04/15 10:16:29;;;;;;;5.15;2.85;;;14.50;99.90;;;;;;5039682;28;20039;-75
2023/04/15 10:19:00;;;;;;;4.22;3.25;;;14.60;99.90;;;;;;5043600;28;20051;-74
2023/04/15 10:21:29;;;;;;;3.40;2.17;;;14.70;99.90;;;;;;5044369;28;20620;-74
2023/04/15 10:23:57;;;;;;;5.57;2.90;;;14.60;99.90;;;;;;5023844;28;20612;-74
2023/04/15 10:26:26;;;;;;;3.78;2.33;;;14.60;99.90;;;;;;5042810;28;20064;-74
2023/04/15 10:28:54;;;;;;;5.05;2.40;;;14.50;99.90;;;;;;5026022;28;20075;-75
2023/04/15 10:31:22;;;;;;;3.72;2.75;;;14.40;99.90;;;;;;5045131;28;20045;-74
2023/04/15 10:33:51;;;;;;;4.47;2.30;;;14.50;99.90;;;;;;5042233;28;20123;-75
2023/04/15 10:36:19;;;;;;;2.38;1.58;;;14.50;99.90;;;;;;5035258;28;20048;-76
2023/04/15 10:38:47;;;;;;;1.60;1.00;;;14.50;99.90;;;;;;5013686;28;20229;-76
2023/04/15 10:41:18;;;;;;;2.03;1.20;;;14.80;99.90;;;;;;5048499;28;20488;-75
2023/04/15 10:43:50;;;;;;;3.63;1.23;;;15.20;99.90;;;;;;5028027;28;20582;-76
2023/04/15 10:46:20;;;;;;;3.30;1.92;;;15.70;99.90;;;;;;5024219;28;20258;-76
2023/04/15 10:48:52;;;;;;;3.28;1.48;;;16.20;99.90;;;;;;5029150;28;20387;-76
2023/04/15 10:51:29;;;;;;;3.80;1.88;;;16.70;99.90;;;;;;5026618;28;20563;-75
2023/04/15 10:54:00;;;;;;;2.22;1.23;;;16.90;99.90;;;;;;5045379;28;20044;-75
2023/04/15 10:56:29;;;;;;;2.92;1.50;;;17.00;99.30;;;;;;5011831;28;20059;-76
2023/04/15 10:58:59;;;;;;;2.45;1.40;;;17.00;98.90;;;;;;5048237;28;20036;-75
2023/04/15 11:01:50;;;;;;;2.80;1.95;;;17.00;98.70;;;;;;5028895;28;20041;-76
2023/04/15 11:04:53;;;;;;;4.70;2.22;;;16.80;97.50;;;;;;5017784;28;20467;-77
2023/04/15 11:07:32;;;;;;;;;;;16.50;97.60;;;;;;5023969;28;20063;-78
2023/04/15 11:10:00;;;;;;;2.55;1.98;;;16.20;98.20;;;;;;5033885;28;19908;-75
2023/04/15 11:12:35;;;;;;;2.33;1.75;;;16.10;98.30;;;;;;5028139;28;20037;-75
2023/04/15 11:15:25;;;;;;;2.72;1.58;;;16.00;98.70;;;;;;5023264;28;20411;-76
2023/04/15 11:17:52;;;;;;;2.72;1.63;;;16.10;98.50;;;;;;5049174;28;20048;-76
2023/04/15 11:20:20;;;;;;;2.25;1.42;;;16.30;98.30;;;;;;5040757;28;20628;-74
2023/04/15 11:22:52;;;;;;;3.03;1.10;;;16.50;97.60;;;;;;5052881;28;20388;-75
2023/04/15 11:25:28;;;;;;;3.05;1.42;;;16.70;97.80;;;;;;5024184;28;20452;-76
2023/04/15 11:27:56;;;;;;;2.83;1.77;;;16.70;97.20;;;;;;5029050;28;20392;-76
2023/04/15 11:30:26;;;;;;;4.47;2.53;;;16.80;96.90;;;;;;5046505;28;20052;-76
2023/04/15 11:32:57;;;;;;;6.32;3.95;;;16.80;96.10;;;;;;5028563;28;20048;-78
2023/04/15 11:35:24;;;;;;;3.95;2.50;;;17.00;96.50;;;;;;5041067;28;20388;-76
2023/04/15 11:37:52;;;;;;;2.83;0.90;;;17.50;96.20;;;;;;5014832;28;20051;-74
2023/04/15 11:40:28;;;;;;;2.08;0.75;;;17.80;94.80;;;;;;5029669;28;20037;-74
2023/04/15 11:43:06;;;;;;;1.95;0.60;;;18.00;94.10;;;;;;5048367;28;20517;-74
2023/04/15 11:45:50;;;;;;;1.42;0.68;;;18.50;94.10;;;;;;5025637;28;20626;-75
2023/04/15 11:48:19;;;;;;;2.10;0.60;;;19.00;92.90;;;;;;5028638;28;20435;-76
2023/04/15 11:50:56;;;;;;;2.55;0.60;;;19.40;91.50;;;;;;5046168;28;20036;-75
2023/04/15 11:53:23;;;;;;;1.85;0.50;;;19.60;90.30;;;;;;5042521;28;20036;-74
2023/04/15 11:55:52;;;;;;;8.10;5.70;;;19.70;88.60;;;;;;5022311;28;20051;-75
2023/04/15 11:58:25;;;;;;;9.40;6.40;;;19.70;88.40;;;;;;5028018;28;20031;-74
2023/04/15 12:00:54;;;;;;;5.70;3.95;;;19.70;87.20;;;;;;5046293;28;20052;-73
2023/04/15 12:03:35;;;;;;;1.67;0.50;;;19.40;86.00;;;;;;5022686;28;20510;-74
2023/04/15 12:06:20;;;;;;;3.08;0.55;;;19.00;86.60;;;;;;5042694;28;20032;-74
2023/04/15 12:09:06;;;;;;;1.77;0.50;;;18.70;87.50;;;;;;5029335;28;20027;-74
2023/04/15 12:11:51;;;;;;;2.05;0.60;;;18.60;87.70;;;;;;5026594;28;20033;-73
2023/04/15 12:14:27;;;;;;;2.35;0.50;;;18.40;87.80;;;;;;5010023;28;20036;-74
2023/04/15 12:17:01;;;;;;;1.85;0.73;;;18.10;88.20;;;;;;5025300;28;20032;-73
2023/04/15 12:19:31;;;;;;;1.02;0.50;;;18.50;88.30;;;;;;5048562;28;20051;-74
2023/04/15 12:22:03;;;;;;;1.35;0.60;;;19.10;87.50;;;;;;5046798;28;20120;-75
2023/04/15 12:24:31;;;;;;;1.15;0.50;;;19.50;85.70;;;;;;5010929;28;20817;-74
2023/04/15 12:27:01;;;;;;;4.63;0.40;;;19.70;83.70;;;;;;5028576;28;20029;-74
2023/04/15 12:29:29;;;;;;;1.42;0.40;;;19.70;80.40;;;;;;5028127;28;20221;-74
2023/04/15 12:32:07;;;;;;;0.75;0.38;;;19.40;81.70;;;;;;5049200;28;20040;-74
2023/04/15 12:34:36;;;;;;;1.20;0.40;;;19.00;82.20;;;;;;5042345;28;20029;-74
2023/04/15 12:37:05;;;;;;;1.48;0.40;;;18.70;83.00;;;;;;5045599;28;20494;-74
2023/04/15 12:39:35;;;;;;;1.67;0.50;;;19.10;83.30;;;;;;5023620;28;20029;-74
2023/04/15 12:42:03;;;;;;;1.20;0.47;;;19.40;80.80;;;;;;5037601;28;20021;-74
2023/04/15 12:44:29;;;;;;;1.23;0.40;;;19.30;81.30;;;;;;5022081;28;20060;-74
2023/04/15 12:46:56;;;;;;;1.50;0.47;;;19.70;82.00;;;;;;5044845;28;20036;-74
2023/04/15 12:49:23;;;;;;;1.92;0.45;;;19.90;80.70;;;;;;5048011;28;20036;-75
2023/04/15 12:51:52;;;;;;;1.60;0.60;;;19.40;81.00;;;;;;5025978;28;20032;-74
2023/04/15 12:54:18;;;;;;;2.60;0.65;;;18.90;82.60;;;;;;4999111;28;20060;-74
2023/04/15 12:56:47;;;;;;;1.45;0.45;;;18.70;83.50;;;;;;5025738;28;20051;-74
2023/04/15 12:59:14;;;;;;;1.00;0.40;;;18.60;82.90;;;;;;5010409;28;20020;-74